createdAt,value
2018-05-03T00:01:12.633Z,100126.23
2018-05-03T00:03:41.351Z,100129.91
2018-05-03T00:08:45.869Z,100132.31
2018-05-03T00:11:15.474Z,100136.79
2018-05-03T00:13:45.496Z,100131.72
2018-05-03T00:16:14.466Z,100134.42
2018-05-03T00:18:43.271Z,100142.88
2018-05-03T00:21:12.199Z,100135.45
2018-05-03T00:23:48.531Z,100136.05
2018-05-03T00:26:23.715Z,100139.97
2018-05-03T00:28:52.629Z,100147.12
2018-05-03T00:31:27.273Z,100139.59
2018-05-03T00:33:58.425Z,100146.77
2018-05-03T00:36:32.081Z,100145.87
2018-05-03T00:39:01.348Z,100149.13
2018-05-03T00:41:34.331Z,100154.47
2018-05-03T00:44:04.725Z,100157.85
2018-05-03T00:46:40.088Z,100161.15
2018-05-03T00:49:10.532Z,100163.80
2018-05-03T00:51:40.912Z,100160.67
2018-05-03T00:54:23.424Z,100168.24
2018-05-03T00:56:52.148Z,100171.27
2018-05-03T00:59:21.820Z,100170.77
2018-05-03T01:01:54.975Z,100173.50
2018-05-03T01:04:23.860Z,100170.59
2018-05-03T01:06:53.808Z,100171.92
2018-05-03T01:09:22.405Z,100172.47
2018-05-03T01:11:52.026Z,100169.53
2018-05-03T01:14:21.428Z,100164.33
2018-05-03T01:16:51.019Z,100171.80
2018-05-03T01:19:20.543Z,100168.08
2018-05-03T01:21:51.321Z,100173.67
2018-05-03T01:24:20.995Z,100171.55
2018-05-03T01:26:54.795Z,100175.77
2018-05-03T01:29:25.078Z,100178.59
2018-05-03T01:31:53.618Z,100184.48
2018-05-03T01:34:22.903Z,100180.22
2018-05-03T01:36:57.423Z,100177.51
2018-05-03T01:39:31.385Z,100187.45
2018-05-03T01:42:00.544Z,100185.23
2018-05-03T01:44:29.430Z,100185.28
2018-05-03T01:46:58.335Z,100190.27
2018-05-03T01:49:27.118Z,100187.03
2018-05-03T01:51:56.055Z,100188.95
2018-05-03T01:54:25.533Z,100187.67
2018-05-03T01:56:54.175Z,100191.97
2018-05-03T01:59:23.040Z,100190.66
2018-05-03T02:01:51.707Z,100194.05
2018-05-03T02:04:20.901Z,100196.42
2018-05-03T02:06:50.123Z,100189.84
2018-05-03T02:09:33.987Z,100197.41
2018-05-03T02:12:04.344Z,100196.25
2018-05-03T02:14:37.415Z,100199.33
2018-05-03T02:17:06.223Z,100193.61
2018-05-03T02:19:39.671Z,100197.23
2018-05-03T02:22:08.631Z,100199.20
2018-05-03T02:24:37.209Z,100193.01
2018-05-03T02:27:06.467Z,100194.33
2018-05-03T02:29:35.988Z,100186.05
2018-05-03T02:32:06.347Z,100181.65
2018-05-03T02:34:37.971Z,100188.69
2018-05-03T02:37:06.596Z,100185.15
2018-05-03T02:39:38.877Z,100183.88
2018-05-03T02:42:08.029Z,100184.72
2018-05-03T02:44:38.003Z,100186.69
2018-05-03T02:47:06.641Z,100181.56
2018-05-03T02:49:35.255Z,100185.19
2018-05-03T02:52:15.747Z,100181.73
2018-05-03T02:54:44.880Z,100175.04
2018-05-03T02:57:23.025Z,100181.10
2018-05-03T03:00:03.979Z,100179.61
2018-05-03T03:04:48.031Z,100189.84
2018-05-03T03:07:33.841Z,100183.88
2018-05-03T03:12:11.470Z,100184.45
2018-05-03T03:15:56.055Z,100185.70
2018-05-03T03:18:40.657Z,100197.22
2018-05-03T03:25:35.270Z,100201.45
2018-05-03T03:30:26.233Z,100193.59
2018-05-03T03:34:11.123Z,100189.41
2018-05-03T03:36:49.522Z,100183.22
2018-05-03T03:41:33.875Z,100181.12
2018-05-03T03:44:13.636Z,100198.19
2018-05-03T03:46:42.669Z,100196.72
2018-05-03T03:49:12.961Z,100199.46
2018-05-03T03:51:42.026Z,100205.12
2018-05-03T03:54:11.193Z,100214.00
2018-05-03T03:56:39.772Z,100218.09
2018-05-03T03:59:09.075Z,100221.63
2018-05-03T04:01:38.136Z,100221.16
2018-05-03T04:04:07.119Z,100220.14
2018-05-03T04:06:35.847Z,100217.16
2018-05-03T04:09:05.503Z,100221.04
2018-05-03T04:16:55.690Z,100227.56
2018-05-03T04:21:31.580Z,100233.46
2018-05-03T04:25:19.252Z,100237.13
2018-05-03T04:27:47.803Z,100232.50
2018-05-03T04:30:16.632Z,100236.89
2018-05-03T04:32:45.126Z,100243.03
2018-05-03T04:35:14.177Z,100241.13
2018-05-03T04:37:42.727Z,100240.14
2018-05-03T04:40:11.210Z,100236.87
2018-05-03T04:42:40.061Z,100238.19
2018-05-03T04:45:08.891Z,100236.40
2018-05-03T04:47:42.799Z,100245.15
2018-05-03T04:50:11.416Z,100245.95
2018-05-03T04:52:39.899Z,100249.03
2018-05-03T04:55:08.416Z,100248.78
2018-05-03T04:57:37.998Z,100249.59
2018-05-03T05:00:06.526Z,100258.34
2018-05-03T05:02:41.886Z,100259.08
2018-05-03T05:05:10.431Z,100259.08
2018-05-03T05:07:39.291Z,100265.69
2018-05-03T05:10:07.864Z,100264.28
2018-05-03T05:12:38.182Z,100267.87
2018-05-03T05:15:06.650Z,100275.45
2018-05-03T05:17:35.982Z,100278.52
2018-05-03T05:20:05.532Z,100274.36
2018-05-03T05:22:36.747Z,100280.30
2018-05-03T05:25:05.446Z,100279.91
2018-05-03T05:27:36.141Z,100280.03
2018-05-03T05:30:06.318Z,100284.59
2018-05-03T05:32:35.284Z,100288.58
2018-05-03T05:35:04.161Z,100295.57
2018-05-03T05:37:33.184Z,100292.12
2018-05-03T05:40:06.243Z,100300.70
2018-05-03T05:49:44.323Z,100300.64
2018-05-03T05:52:20.250Z,100308.03
2018-05-03T05:54:48.816Z,100314.53
2018-05-03T05:57:17.515Z,100316.66
2018-05-03T05:59:46.107Z,100323.27
2018-05-03T06:02:15.070Z,100327.17
2018-05-03T06:04:43.583Z,100328.56
2018-05-03T06:07:12.394Z,100334.33
2018-05-03T06:09:42.727Z,100338.26
2018-05-03T06:12:11.262Z,100343.86
2018-05-03T06:14:40.539Z,100352.91
2018-05-03T06:17:09.054Z,100350.92
2018-05-03T06:19:37.898Z,100351.98
2018-05-03T06:22:07.134Z,100357.84
2018-05-03T06:24:35.715Z,100361.41
2018-05-03T06:27:15.331Z,100355.43
2018-05-03T06:29:47.512Z,100358.15
2018-05-03T06:32:16.321Z,100364.91
2018-05-03T06:34:44.984Z,100366.52
2018-05-03T06:37:14.058Z,100372.40
2018-05-03T06:39:46.780Z,100375.58
2018-05-03T06:42:15.783Z,100381.09
2018-05-03T06:44:48.305Z,100376.66
2018-05-03T06:47:16.943Z,100381.28
2018-05-03T06:49:45.461Z,100387.80
2018-05-03T06:52:14.366Z,100388.23
2018-05-03T06:54:43.288Z,100384.89
2018-05-03T06:57:11.823Z,100388.98
2018-05-03T06:59:40.726Z,100386.48
2018-05-03T07:02:11.445Z,100391.82
2018-05-03T07:04:40.076Z,100387.41
2018-05-03T07:07:09.638Z,100391.33
2018-05-03T07:09:38.156Z,100388.87
2018-05-03T07:12:13.424Z,100395.46
2018-05-03T07:14:42.636Z,100398.25
2018-05-03T07:17:11.202Z,100404.95
2018-05-03T07:19:45.758Z,100411.38
2018-05-03T07:22:14.461Z,100412.23
2018-05-03T07:24:46.551Z,100412.14
2018-05-03T07:27:15.683Z,100410.86
2018-05-03T07:29:44.559Z,100413.81
2018-05-03T07:32:13.432Z,100425.01
2018-05-03T07:34:43.372Z,100429.08
2018-05-03T07:37:12.024Z,100433.36
2018-05-03T07:39:40.573Z,100427.75
2018-05-03T07:42:09.530Z,100437.97
2018-05-03T07:44:38.431Z,100435.78
2018-05-03T07:47:07.774Z,100433.14
2018-05-03T07:49:36.551Z,100441.02
2018-05-03T07:52:05.705Z,100448.19
2018-05-03T07:54:34.226Z,100444.95
2018-05-03T07:57:03.174Z,100452.34
2018-05-03T07:59:31.733Z,100447.76
2018-05-03T08:02:00.295Z,100458.77
2018-05-03T08:04:29.624Z,100459.45
2018-05-03T08:06:58.208Z,100460.44
2018-05-03T08:09:26.792Z,100457.92
2018-05-03T08:11:55.743Z,100455.97
2018-05-03T08:14:24.282Z,100459.98
2018-05-03T08:16:52.859Z,100461.61
2018-05-03T08:19:26.948Z,100463.63
2018-05-03T08:21:55.533Z,100466.88
2018-05-03T08:24:25.184Z,100471.73
2018-05-03T08:26:53.827Z,100467.52
2018-05-03T08:29:22.372Z,100469.80
2018-05-03T08:31:51.654Z,100465.75
2018-05-03T08:34:20.387Z,100461.00
2018-05-03T08:36:49.077Z,100464.80
2018-05-03T08:41:57.043Z,100478.78
2018-05-03T08:44:25.561Z,100484.05
2018-05-03T08:46:58.697Z,100485.83
2018-05-03T08:49:27.547Z,100486.38
2018-05-03T08:51:56.552Z,100485.95
2018-05-03T08:54:25.136Z,100491.56
2018-05-03T08:56:53.707Z,100485.55
2018-05-03T08:59:22.632Z,100480.83
2018-05-03T09:01:51.375Z,100477.21
2018-05-03T09:04:19.926Z,100481.13
2018-05-03T09:06:48.834Z,100472.78
2018-05-03T09:09:17.680Z,100483.18
2018-05-03T09:11:47.113Z,100485.60
2018-05-03T09:14:17.188Z,100495.20
2018-05-03T09:16:45.712Z,100492.70
2018-05-03T09:19:14.257Z,100488.13
2018-05-03T09:21:46.482Z,100498.79
2018-05-03T09:24:15.231Z,100490.08
2018-05-03T09:26:43.842Z,100497.67
2018-05-03T09:29:12.791Z,100494.34
2018-05-03T09:31:41.396Z,100498.52
2018-05-03T09:34:09.982Z,100494.53
2018-05-03T09:36:38.794Z,100495.24
2018-05-03T09:39:07.493Z,100490.75
2018-05-03T09:41:36.078Z,100481.59
2018-05-03T09:44:07.923Z,100485.77
2018-05-03T09:46:40.544Z,100487.80
2018-05-03T09:49:09.113Z,100485.08
2018-05-03T09:51:45.290Z,100492.13
2018-05-03T09:54:14.072Z,100496.36
2018-05-03T09:56:46.990Z,100503.20
2018-05-03T09:59:15.647Z,100508.00
2018-05-03T10:01:44.171Z,100515.88
2018-05-03T10:04:14.326Z,100510.95
2018-05-03T10:06:42.856Z,100514.70
2018-05-03T10:09:11.375Z,100502.41
2018-05-03T10:11:40.403Z,100503.93
2018-05-03T10:14:11.561Z,100499.23
2018-05-03T10:16:40.119Z,100505.52
2018-05-03T10:19:10.834Z,100500.52
2018-05-03T10:21:39.371Z,100502.23
2018-05-03T10:24:08.359Z,100499.75
2018-05-03T10:26:37.382Z,100501.70
2018-05-03T10:29:05.942Z,100499.94
2018-05-03T10:31:34.739Z,100491.89
2018-05-03T10:34:06.664Z,100492.15
2018-05-03T10:36:35.226Z,100492.77
2018-05-03T10:39:05.497Z,100485.79
2018-05-03T10:41:35.334Z,100481.05
2018-05-03T10:44:04.623Z,100485.73
2018-05-03T10:46:36.655Z,100484.97
2018-05-03T10:49:05.317Z,100481.05
2018-05-03T10:51:34.083Z,100478.10
2018-05-03T10:54:05.400Z,100481.23
2018-05-03T10:56:33.943Z,100474.30
2018-05-03T10:59:02.787Z,100476.85
2018-05-03T11:01:31.527Z,100466.69
2018-05-03T11:04:05.185Z,100461.92
2018-05-03T11:06:34.218Z,100460.86
2018-05-03T11:09:07.638Z,100465.40
2018-05-03T11:11:36.442Z,100480.81
2018-05-03T11:14:05.907Z,100473.92
2018-05-03T11:16:40.247Z,100470.39
2018-05-03T11:19:08.775Z,100472.84
2018-05-03T11:21:44.143Z,100473.70
2018-05-03T11:24:12.699Z,100471.68
2018-05-03T11:26:45.835Z,100469.09
2018-05-03T11:29:14.775Z,100455.42
2018-05-03T11:31:44.803Z,100451.49
2018-05-03T11:34:13.319Z,100442.88
2018-05-03T11:36:46.991Z,100442.75
2018-05-03T11:39:19.680Z,100447.24
2018-05-03T11:41:50.052Z,100451.60
2018-05-03T11:44:21.372Z,100454.27
2018-05-03T11:46:53.224Z,100448.23
2018-05-03T11:49:24.073Z,100456.34
2018-05-03T11:51:52.675Z,100459.02
2018-05-03T11:54:23.632Z,100450.25
2018-05-03T11:56:52.451Z,100456.20
2018-05-03T11:59:25.220Z,100456.91
2018-05-03T12:01:53.941Z,100451.33
2018-05-03T12:04:23.052Z,100457.06
2018-05-03T12:06:51.616Z,100453.63
2018-05-03T12:09:22.650Z,100442.89
2018-05-03T12:11:51.239Z,100446.58
2018-05-03T12:14:19.851Z,100445.06
2018-05-03T12:16:49.249Z,100437.41
2018-05-03T12:19:19.986Z,100445.30
2018-05-03T12:21:48.931Z,100448.45
2018-05-03T12:24:17.624Z,100446.46
2018-05-03T12:26:46.185Z,100444.48
2018-05-03T12:29:15.521Z,100453.44
2018-05-03T12:31:44.105Z,100453.94
2018-05-03T12:34:12.661Z,100448.34
2018-05-03T12:36:41.563Z,100446.23
2018-05-03T12:39:10.099Z,100448.73
2018-05-03T12:41:39.358Z,100447.50
2018-05-03T12:44:08.230Z,100452.27
2018-05-03T12:46:36.751Z,100447.52
2018-05-03T12:49:05.811Z,100438.97
2018-05-03T12:51:34.620Z,100436.86
2018-05-03T12:54:04.322Z,100434.32
2018-05-03T12:56:35.890Z,100425.45
2018-05-03T12:59:04.890Z,100416.61
2018-05-03T13:01:33.745Z,100415.80
2018-05-03T13:04:04.151Z,100423.23
2018-05-03T13:06:33.839Z,100419.77
2018-05-03T13:09:02.523Z,100424.58
2018-05-03T13:11:31.007Z,100414.96
2018-05-03T13:13:59.781Z,100412.80
2018-05-03T13:16:28.359Z,100412.88
2018-05-03T13:18:56.918Z,100410.38
2018-05-03T13:21:26.577Z,100401.38
2018-05-03T13:23:55.138Z,100400.02
2018-05-03T13:26:23.808Z,100407.67
2018-05-03T13:28:52.895Z,100408.20
2018-05-03T13:31:21.734Z,100403.81
2018-05-03T13:33:51.142Z,100404.96
2018-05-03T13:49:26.020Z,100393.91
2018-05-03T13:51:54.629Z,100398.77
2018-05-03T13:54:23.464Z,100384.69
2018-05-03T13:56:54.447Z,100384.62
2018-05-03T13:59:23.015Z,100378.40
2018-05-03T14:01:57.762Z,100385.67
2018-05-03T14:04:26.329Z,100392.97
2018-05-03T14:06:54.957Z,100384.91
2018-05-03T14:09:25.160Z,100387.59
2018-05-03T14:11:53.671Z,100387.54
2018-05-03T14:14:22.170Z,100388.77
2018-05-03T14:16:50.963Z,100386.02
2018-05-03T14:19:19.729Z,100380.41
2018-05-03T14:21:51.435Z,100385.05
2018-05-03T14:24:27.736Z,100388.33
2018-05-03T14:26:56.564Z,100390.30
2018-05-03T14:29:25.141Z,100381.73
2018-05-03T14:31:53.915Z,100375.16
2018-05-03T14:34:25.883Z,100374.22
2018-05-03T14:36:54.501Z,100373.34
2018-05-03T14:39:24.354Z,100379.28
2018-05-03T14:41:52.931Z,100380.08
2018-05-03T14:44:24.428Z,100377.75
2018-05-03T14:46:53.307Z,100379.14
2018-05-03T14:49:25.292Z,100383.94
2018-05-03T14:52:04.877Z,100380.59
2018-05-03T14:54:34.147Z,100381.48
2018-05-03T14:57:03.070Z,100376.63
2018-05-03T14:59:32.602Z,100380.34
2018-05-03T15:02:05.919Z,100377.02
2018-05-03T15:04:35.544Z,100376.05
2018-05-03T15:07:04.915Z,100374.46
2018-05-03T15:09:33.735Z,100381.27
2018-05-03T15:12:04.127Z,100379.95
2018-05-03T15:14:33.044Z,100374.75
2018-05-03T15:17:02.139Z,100376.29
2018-05-03T15:19:30.706Z,100374.57
2018-05-03T15:21:59.232Z,100388.12
2018-05-03T15:24:28.340Z,100380.27
2018-05-03T15:26:56.867Z,100377.00
2018-05-03T15:29:25.428Z,100375.75
2018-05-03T15:31:56.909Z,100373.88
2018-05-03T15:34:25.502Z,100381.00
2018-05-03T15:36:54.042Z,100386.47
2018-05-03T15:39:22.986Z,100390.70
2018-05-03T15:41:51.527Z,100394.55
2018-05-03T15:44:20.364Z,100393.03
2018-05-03T15:46:49.837Z,100392.25
2018-05-03T15:51:59.091Z,100401.53
2018-05-03T15:54:27.596Z,100403.22
2018-05-03T15:56:56.201Z,100402.58
2018-05-03T15:59:25.187Z,100401.50
2018-05-03T16:01:53.729Z,100406.28
2018-05-03T16:04:22.279Z,100401.00
2018-05-03T16:06:51.391Z,100401.07
2018-05-03T16:09:21.069Z,100410.37
2018-05-03T16:11:49.668Z,100410.43
2018-05-03T16:14:18.612Z,100419.54
2018-05-03T16:16:47.078Z,100424.88
2018-05-03T16:19:15.931Z,100418.17
2018-05-03T16:21:48.177Z,100425.86
2018-05-03T16:24:17.048Z,100416.72
2018-05-03T16:26:45.608Z,100425.90
2018-05-03T16:29:29.339Z,100421.31
2018-05-03T16:31:58.314Z,100422.86
2018-05-03T16:34:30.765Z,100418.47
2018-05-03T16:36:59.267Z,100420.28
2018-05-03T16:39:27.835Z,100419.78
2018-05-03T16:41:57.107Z,100417.54
2018-05-03T16:44:26.554Z,100421.77
2018-05-03T16:46:55.045Z,100416.27
2018-05-03T16:49:26.539Z,100422.00
2018-05-03T16:51:55.096Z,100421.34
2018-05-03T16:54:24.849Z,100420.73
2018-05-03T16:56:53.667Z,100423.95
2018-05-03T16:59:32.256Z,100423.33
2018-05-03T17:02:06.136Z,100435.20
2018-05-03T17:04:34.662Z,100429.12
2018-05-03T17:07:03.796Z,100435.11
2018-05-03T17:09:33.148Z,100428.11
2018-05-03T17:12:02.888Z,100441.55
2018-05-03T17:14:31.609Z,100442.32
2018-05-03T17:17:00.467Z,100437.53
2018-05-03T17:19:32.651Z,100444.13
2018-05-03T17:22:02.963Z,100439.60
2018-05-03T17:24:33.895Z,100438.26
2018-05-03T17:27:02.815Z,100452.02
2018-05-03T17:29:35.905Z,100455.11
2018-05-03T17:32:08.177Z,100453.86
2018-05-03T17:34:37.100Z,100456.06
2018-05-03T17:37:07.335Z,100454.85
2018-05-03T17:39:35.954Z,100462.20
2018-05-03T17:42:06.827Z,100463.19
2018-05-03T17:44:35.360Z,100468.20
2018-05-03T17:47:04.526Z,100476.80
2018-05-03T17:49:33.341Z,100474.83
2018-05-03T17:52:02.785Z,100476.89
2018-05-03T17:54:31.614Z,100484.13
2018-05-03T17:57:06.397Z,100486.91
2018-05-03T17:59:35.307Z,100486.72
2018-05-03T18:02:06.539Z,100487.81
2018-05-03T18:04:35.466Z,100502.06
2018-05-03T18:07:04.149Z,100505.84
2018-05-03T18:09:33.050Z,100509.22
2018-05-03T18:12:01.755Z,100507.63
2018-05-03T18:14:31.402Z,100506.62
2018-05-03T18:17:00.243Z,100508.02
2018-05-03T18:19:28.871Z,100514.64
2018-05-03T18:21:57.443Z,100526.97
2018-05-03T18:24:27.460Z,100519.37
2018-05-03T18:26:56.031Z,100521.38
2018-05-03T18:29:28.564Z,100523.69
2018-05-03T18:31:57.562Z,100532.09
2018-05-03T18:34:26.192Z,100531.61
2018-05-03T18:36:54.787Z,100543.06
2018-05-03T18:39:26.790Z,100546.73
2018-05-03T18:41:55.407Z,100547.34
2018-05-03T18:44:25.272Z,100556.13
2018-05-03T18:46:53.830Z,100560.73
2018-05-03T18:49:27.588Z,100564.65
2018-05-03T18:51:56.325Z,100559.94
2018-05-03T18:54:24.968Z,100567.78
2018-05-03T18:56:53.633Z,100568.30
2018-05-03T18:59:22.650Z,100573.00
2018-05-03T19:01:52.837Z,100579.94
2018-05-03T19:04:22.760Z,100581.20
2018-05-03T19:06:51.967Z,100586.77
2018-05-03T19:09:20.787Z,100583.81
2018-05-03T19:11:49.627Z,100590.95
2018-05-03T19:14:23.361Z,100592.38
2018-05-03T19:16:51.970Z,100596.58
2018-05-03T19:19:22.424Z,100593.63
2018-05-03T19:21:55.051Z,100600.81
2018-05-03T19:24:30.288Z,100606.28
2018-05-03T19:26:58.881Z,100612.40
2018-05-03T19:29:28.213Z,100613.45
2018-05-03T19:31:56.809Z,100614.19
2018-05-03T19:34:25.408Z,100613.12
2018-05-03T19:36:54.263Z,100615.11
2018-05-03T19:39:23.351Z,100620.06
2018-05-03T19:41:51.882Z,100615.33
2018-05-03T19:44:21.900Z,100626.95
2018-05-03T19:46:50.459Z,100631.46
2018-05-03T19:49:23.139Z,100636.61
2018-05-03T19:51:52.115Z,100633.73
2018-05-03T19:54:26.710Z,100641.91
2018-05-03T19:56:55.336Z,100641.64
2018-05-03T19:59:24.187Z,100645.41
2018-05-03T20:01:52.759Z,100651.11
2018-05-03T20:04:22.195Z,100656.02
2018-05-03T20:06:51.189Z,100659.44
2018-05-03T20:09:19.774Z,100664.71
2018-05-03T20:11:48.640Z,100662.14
2018-05-03T20:14:17.979Z,100664.98
2018-05-03T20:16:47.148Z,100673.39
2018-05-03T20:19:17.550Z,100672.62
2018-05-03T20:21:46.632Z,100668.53
2018-05-03T20:24:16.019Z,100677.28
2018-05-03T20:26:44.550Z,100675.13
2018-05-03T20:29:15.120Z,100680.45
2018-05-03T20:31:43.695Z,100680.45
2018-05-03T20:34:12.323Z,100685.09
2018-05-03T20:36:41.184Z,100679.73
2018-05-03T20:39:09.793Z,100690.32
2018-05-03T20:41:38.422Z,100691.59
2018-05-03T20:44:08.527Z,100693.53
2018-05-03T20:46:37.006Z,100695.16
2018-05-03T20:49:05.526Z,100695.58
2018-05-03T20:51:37.048Z,100688.84
2018-05-03T20:54:06.492Z,100691.08
2018-05-03T20:56:35.040Z,100688.84
2018-05-03T20:59:03.795Z,100692.22
2018-05-03T21:01:32.390Z,100697.45
2018-05-03T21:04:01.265Z,100696.48
2018-05-03T21:06:30.102Z,100693.28
2018-05-03T21:08:58.584Z,100695.19
2018-05-03T21:14:04.146Z,100694.16
2018-05-03T21:16:33.323Z,100697.53
2018-05-03T21:19:03.617Z,100699.60
2018-05-03T21:21:32.238Z,100703.77
2018-05-03T21:24:05.208Z,100709.81
2018-05-03T21:26:34.289Z,100704.97
2018-05-03T21:29:08.443Z,100705.03
2018-05-03T21:31:36.979Z,100708.29
2018-05-03T21:34:11.258Z,100704.00
2018-05-03T21:36:39.847Z,100703.02
2018-05-03T21:39:08.666Z,100699.03
2018-05-03T21:41:37.860Z,100695.48
2018-05-03T21:46:40.007Z,100700.67
2018-05-03T21:49:08.524Z,100703.25
2018-05-03T21:51:37.048Z,100701.75
2018-05-03T21:54:06.666Z,100702.82
2018-05-03T21:56:45.150Z,100702.42
2018-05-03T21:59:14.123Z,100700.04
2018-05-03T22:01:45.180Z,100695.53
2018-05-03T22:04:14.017Z,100699.17
2018-05-03T22:06:43.599Z,100700.59
2018-05-03T22:09:12.150Z,100699.56
2018-05-03T22:11:40.713Z,100703.25
2018-05-03T22:14:09.690Z,100704.33
2018-05-03T22:16:38.646Z,100706.08
2018-05-03T22:19:09.376Z,100714.27
2018-05-03T22:21:38.255Z,100705.45
2018-05-03T22:24:06.905Z,100712.34
2018-05-03T22:26:35.485Z,100712.47
2018-05-03T22:29:04.891Z,100709.53
2018-05-03T22:31:37.929Z,100706.75
2018-05-03T22:34:06.516Z,100711.80
2018-05-03T22:36:43.737Z,100710.34
2018-05-03T22:39:12.766Z,100712.09
2018-05-03T22:41:43.177Z,100715.70
2018-05-03T22:44:12.389Z,100720.59
2018-05-03T22:46:41.015Z,100718.18
2018-05-03T22:49:10.156Z,100720.75
2018-05-03T22:51:42.354Z,100721.48
2018-05-03T22:54:10.901Z,100717.54
2018-05-03T22:56:42.286Z,100710.17
2018-05-03T22:59:11.023Z,100715.26
2018-05-03T23:01:39.604Z,100714.63
2018-05-03T23:04:08.390Z,100714.56
2018-05-03T23:06:38.771Z,100716.62
2018-05-03T23:09:07.345Z,100712.55
2018-05-03T23:11:38.736Z,100720.59
2018-05-03T23:14:07.403Z,100720.23
2018-05-03T23:16:39.745Z,100718.37
2018-05-03T23:19:08.442Z,100718.77
2018-05-03T23:21:37.063Z,100720.34
2018-05-03T23:24:05.902Z,100721.41
2018-05-03T23:26:34.454Z,100716.43
2018-05-03T23:29:03.815Z,100722.88
2018-05-03T23:31:32.624Z,100728.94
2018-05-03T23:34:01.378Z,100730.25
2018-05-03T23:36:30.061Z,100733.91
2018-05-03T23:38:58.895Z,100732.84
2018-05-03T23:41:27.439Z,100729.72
2018-05-03T23:43:56.004Z,100728.37
2018-05-03T23:46:25.095Z,100738.27
2018-05-03T23:48:53.683Z,100730.03
2018-05-03T23:51:22.751Z,100734.92
2018-05-03T23:53:51.544Z,100728.13
2018-05-03T23:56:19.998Z,100729.77
2018-05-03T23:58:48.805Z,100735.82
